createdAt,value
2022-11-07T15:35:30.324Z,33.90
2022-11-07T15:37:54.011Z,46.53
2022-11-07T15:40:21.305Z,63.23
2022-11-07T15:42:48.319Z,29.70
2022-11-07T15:45:18.042Z,31.60
2022-11-07T15:55:20.407Z,29.50
2022-11-07T16:39:56.135Z,21.55
2022-11-07T16:42:23.188Z,25.27
2022-11-07T16:44:50.249Z,22.07
2022-11-07T16:47:17.722Z,24.77
2022-11-07T16:49:45.238Z,37.20
2022-11-07T16:52:18.299Z,24.63
2022-11-07T16:54:46.195Z,23.03
2022-11-07T16:57:17.985Z,26.70
2022-11-07T16:59:46.163Z,31.70
2022-11-07T17:02:21.083Z,29.43
2022-11-07T17:07:16.931Z,25.53
2022-11-07T17:09:44.078Z,24.70
2022-11-07T17:12:17.652Z,21.00
2022-11-07T17:14:44.744Z,23.80
2022-11-07T17:17:17.128Z,22.97
2022-11-07T17:19:44.425Z,20.67
2022-11-07T17:22:12.474Z,18.70
2022-11-07T17:24:40.047Z,30.50
2022-11-07T17:27:20.746Z,25.73
2022-11-07T17:29:48.015Z,23.23
2022-11-07T17:32:15.080Z,22.70
2022-11-07T17:34:42.087Z,22.90
2022-11-07T17:37:17.746Z,22.77
2022-11-07T17:39:45.759Z,20.07
2022-11-07T17:42:13.181Z,22.90
2022-11-07T17:44:40.910Z,19.17
2022-11-07T17:47:27.200Z,21.83
2022-11-07T17:49:54.216Z,25.33
2022-11-07T17:52:21.524Z,19.60
2022-11-07T17:54:48.513Z,20.00
2022-11-07T17:57:15.605Z,20.43
2022-11-07T17:59:45.852Z,20.43
2022-11-07T18:02:19.030Z,23.60
2022-11-07T18:04:46.898Z,19.90
2022-11-07T18:07:14.337Z,19.40
2022-11-07T18:09:41.602Z,22.00
2022-11-07T18:12:11.785Z,18.17
2022-11-07T18:14:42.338Z,18.50
2022-11-07T18:17:10.160Z,17.10
2022-11-07T18:19:43.314Z,17.60
2022-11-07T18:22:10.380Z,20.40
2022-11-07T18:24:38.880Z,17.80
2022-11-07T18:27:10.345Z,19.20
2022-11-07T18:29:40.244Z,17.50
2022-11-07T18:32:07.301Z,21.20
2022-11-07T18:34:34.326Z,20.90
2022-11-07T18:37:01.389Z,18.67
2022-11-07T18:39:28.982Z,17.23
2022-11-07T18:41:56.081Z,19.10
2022-11-07T18:44:23.196Z,19.73
2022-11-07T18:46:50.985Z,18.97
2022-11-07T18:49:19.594Z,20.27
2022-11-07T18:51:46.871Z,17.23
2022-11-07T18:54:14.389Z,14.90
2022-11-07T18:56:42.289Z,16.70
2022-11-07T18:59:11.559Z,22.00
2022-11-07T19:01:39.194Z,16.83
2022-11-07T19:04:11.560Z,16.20
2022-11-07T19:06:55.817Z,16.70
2022-11-07T19:09:27.342Z,14.47
2022-11-07T19:11:54.731Z,16.00
2022-11-07T19:14:21.834Z,15.00
2022-11-07T19:16:49.097Z,15.07
2022-11-07T19:19:16.795Z,19.53
2022-11-07T19:21:44.189Z,19.73
2022-11-07T19:24:12.821Z,20.47
2022-11-07T19:26:40.671Z,22.33
2022-11-07T19:29:10.147Z,20.87
2022-11-07T19:31:38.287Z,24.00
2022-11-07T19:34:06.084Z,20.77
2022-11-07T19:36:34.018Z,20.63
2022-11-07T19:39:05.585Z,24.50
2022-11-07T19:41:32.632Z,28.27
2022-11-07T19:44:02.012Z,24.23
2022-11-07T19:46:29.078Z,22.80
2022-11-07T19:48:56.748Z,20.00
2022-11-07T19:51:24.164Z,18.27
2022-11-07T19:53:55.051Z,20.83
2022-11-07T19:56:23.303Z,17.73
2022-11-07T19:58:50.310Z,16.60
2022-11-07T20:01:20.688Z,14.87
2022-11-07T20:03:49.798Z,13.97
2022-11-07T20:06:19.735Z,19.57
2022-11-07T20:08:47.034Z,16.17
2022-11-07T20:11:16.356Z,18.77
2022-11-07T20:14:03.407Z,12.83
2022-11-07T20:16:34.992Z,13.37
2022-11-07T20:19:03.966Z,12.60
2022-11-07T20:21:31.093Z,15.00
2022-11-07T20:23:59.969Z,13.67
2022-11-07T20:26:29.254Z,12.17
2022-11-07T20:28:56.800Z,11.87
2022-11-07T20:31:27.232Z,20.23
2022-11-07T20:33:57.014Z,20.43
2022-11-07T20:36:25.051Z,14.17
2022-11-07T20:38:55.129Z,12.57
2022-11-07T20:41:23.995Z,14.27
2022-11-07T20:44:02.827Z,17.67
2022-11-07T20:46:33.295Z,19.20
2022-11-07T20:49:07.742Z,15.70
2022-11-07T20:51:34.869Z,17.98
2022-11-07T20:54:04.667Z,26.70
2022-11-07T20:56:33.932Z,20.40
2022-11-07T20:59:04.550Z,18.87
2022-11-07T21:01:36.904Z,18.17
2022-11-07T21:04:09.059Z,18.57
2022-11-07T21:06:37.223Z,19.67
2022-11-07T21:09:05.295Z,12.93
2022-11-07T21:11:35.471Z,13.83
2022-11-07T21:14:02.985Z,14.53
2022-11-07T21:16:34.794Z,15.83
2022-11-07T21:19:07.823Z,13.40
2022-11-07T21:21:36.083Z,17.83
2022-11-07T21:24:03.389Z,15.33
2022-11-07T21:26:35.682Z,12.60
2022-11-07T21:29:06.654Z,15.07
2022-11-07T21:31:35.943Z,14.40
2022-11-07T21:34:07.518Z,14.97
2022-11-07T21:36:35.508Z,14.30
2022-11-07T21:39:03.491Z,15.27
2022-11-07T21:41:32.020Z,14.73
2022-11-07T21:44:00.597Z,16.97
2022-11-07T21:46:31.554Z,14.00
2022-11-07T21:48:58.835Z,13.77
2022-11-07T21:51:28.582Z,14.63
2022-11-07T21:53:56.427Z,14.17
2022-11-07T21:56:27.220Z,16.70
2022-11-07T21:58:57.957Z,18.80
2022-11-07T22:01:25.540Z,14.77
2022-11-07T22:04:10.068Z,17.40
2022-11-07T22:06:40.520Z,17.58
2022-11-07T22:09:09.140Z,18.23
2022-11-07T22:11:36.366Z,15.13
2022-11-07T22:14:03.799Z,17.47
2022-11-07T22:16:31.641Z,17.20
2022-11-07T22:19:01.074Z,13.67
2022-11-07T22:21:31.630Z,15.20
2022-11-07T22:24:00.094Z,15.50
2022-11-07T22:26:29.473Z,15.63
2022-11-07T22:28:57.591Z,13.87
2022-11-07T22:31:31.097Z,13.50
2022-11-07T22:33:59.834Z,16.33
2022-11-07T22:36:29.964Z,16.87
2022-11-07T22:38:58.449Z,12.90
2022-11-07T22:41:27.237Z,12.87
2022-11-07T22:43:54.865Z,15.87
2022-11-07T22:46:24.447Z,13.63
2022-11-07T22:48:53.522Z,16.13
2022-11-07T22:51:23.553Z,14.30
2022-11-07T22:54:12.710Z,14.07
2022-11-07T22:56:40.268Z,17.30
2022-11-07T22:59:08.767Z,13.67
2022-11-07T23:01:40.201Z,16.30
2022-11-07T23:04:13.820Z,15.00
2022-11-07T23:06:42.615Z,13.13
2022-11-07T23:09:13.608Z,14.67
2022-11-07T23:11:46.331Z,13.93
2022-11-07T23:14:21.438Z,16.67
2022-11-07T23:16:51.907Z,14.13
2022-11-07T23:19:22.298Z,11.63
2022-11-07T23:21:51.191Z,14.60
2022-11-07T23:24:18.603Z,13.23
2022-11-07T23:26:45.651Z,15.23
2022-11-07T23:29:17.350Z,13.57
2022-11-07T23:31:47.078Z,18.87
2022-11-07T23:34:15.254Z,15.93
2022-11-07T23:36:44.357Z,17.37
2022-11-07T23:39:15.722Z,11.83
2022-11-07T23:41:43.027Z,11.73
2022-11-07T23:44:11.231Z,12.43
2022-11-07T23:46:59.286Z,11.03
2022-11-07T23:49:49.530Z,14.37
2022-11-07T23:52:16.737Z,16.03
2022-11-07T23:55:04.036Z,13.43
2022-11-07T23:57:35.061Z,13.23
